Time;durP1;ratioP1;P1;durP2;ratioP2;P2;SDS_P1;SDS_P2;PMS_P1;PMS_P2;Temp;Humidity;BMP_temperature;BMP_pressure;BME280_temperature;BME280_humidity;BME280_pressure;Samples;Min_cycle;Max_cycle;Signal;HPM_P1;HPM_P2
2022/12/09 00:00:53;;;;;;;0.30;0.30;;;-0.90;99.90;;;;;;5133293;27;21073;-84
2022/12/09 00:03:20;;;;;;;0.30;0.30;;;-1.00;99.90;;;;;;5131615;27;20480;-83
2022/12/09 00:05:49;;;;;;;0.40;0.40;;;-1.00;99.90;;;;;;5134035;27;21012;-84
2022/12/09 00:08:16;;;;;;;0.30;0.30;;;-0.90;99.90;;;;;;5135022;27;20432;-84
2022/12/09 00:10:43;;;;;;;0.30;0.30;;;-0.90;99.90;;;;;;5135156;27;20453;-86
2022/12/09 00:13:10;;;;;;;0.30;0.30;;;-1.00;99.90;;;;;;5135391;27;20464;-85
2022/12/09 00:15:40;;;;;;;0.63;0.60;;;-1.00;99.90;;;;;;5116841;28;20459;-86
2022/12/09 00:18:07;;;;;;;0.50;0.50;;;-1.10;99.90;;;;;;5114653;28;20443;-85
2022/12/09 00:20:34;;;;;;;0.40;0.40;;;-1.10;99.90;;;;;;5114197;28;20833;-86
2022/12/09 00:23:02;;;;;;;0.30;0.30;;;-1.10;99.90;;;;;;5114480;28;20403;-85
2022/12/09 00:25:29;;;;;;;0.30;0.30;;;-1.10;99.90;;;;;;5114262;28;20993;-85
2022/12/09 00:27:55;;;;;;;0.70;0.70;;;-1.20;99.90;;;;;;5114413;28;20448;-86
2022/12/09 00:30:22;;;;;;;0.83;0.80;;;-1.10;99.90;;;;;;5114309;28;20451;-86
2022/12/09 00:32:49;;;;;;;0.57;0.57;;;-1.20;99.90;;;;;;5114597;28;20482;-86
2022/12/09 00:35:16;;;;;;;0.60;0.60;;;-1.20;99.90;;;;;;5114567;28;20447;-86
2022/12/09 00:37:43;;;;;;;0.90;0.90;;;-1.10;99.90;;;;;;5115163;28;20456;-86
2022/12/09 00:40:12;;;;;;;0.63;0.40;;;-1.20;99.90;;;;;;5114510;28;20422;-86
2022/12/09 00:42:39;;;;;;;0.30;0.30;;;-1.20;99.90;;;;;;5114009;28;20443;-86
2022/12/09 00:45:07;;;;;;;4.23;0.83;;;-1.20;99.90;;;;;;5114381;28;20442;-86
2022/12/09 00:47:34;;;;;;;0.40;0.40;;;-1.30;99.90;;;;;;5114475;28;20425;-86
2022/12/09 00:50:01;;;;;;;0.30;0.30;;;-1.30;99.90;;;;;;5114815;28;20419;-84
2022/12/09 00:52:27;;;;;;;0.30;0.20;;;-1.30;99.90;;;;;;5114476;28;20794;-84
2022/12/09 00:54:54;;;;;;;0.40;0.40;;;-1.30;99.90;;;;;;5114335;28;20458;-84
2022/12/09 00:57:22;;;;;;;0.90;0.90;;;-1.30;99.90;;;;;;5114369;28;20440;-84
2022/12/09 00:59:49;;;;;;;0.70;0.70;;;-1.20;99.90;;;;;;5114398;28;20544;-84
2022/12/09 01:02:16;;;;;;;0.30;0.30;;;-1.30;99.90;;;;;;5114375;28;20776;-84
2022/12/09 01:04:43;;;;;;;0.57;0.50;;;-1.30;99.90;;;;;;5114296;28;20418;-85
2022/12/09 01:07:10;;;;;;;0.40;0.40;;;-1.30;99.90;;;;;;5113931;28;20929;-85
2022/12/09 01:09:37;;;;;;;0.30;0.30;;;-1.30;99.90;;;;;;5114308;28;20473;-85
2022/12/09 01:12:04;;;;;;;0.40;0.40;;;-1.30;99.90;;;;;;5114384;28;20928;-85
2022/12/09 01:14:32;;;;;;;0.30;0.30;;;-1.30;99.90;;;;;;5114309;28;20830;-85
2022/12/09 01:16:59;;;;;;;0.33;0.33;;;-1.40;99.90;;;;;;5114231;28;20449;-85
2022/12/09 01:19:26;;;;;;;0.83;0.83;;;-1.40;99.90;;;;;;5114537;28;20424;-85
2022/12/09 01:21:54;;;;;;;0.30;0.30;;;-1.40;99.90;;;;;;5113947;28;20457;-85
2022/12/09 01:24:21;;;;;;;0.30;0.30;;;-1.50;99.90;;;;;;5114223;28;20418;-85
2022/12/09 01:26:48;;;;;;;2.00;1.27;;;-1.50;99.90;;;;;;5114198;28;20564;-86
2022/12/09 01:29:15;;;;;;;0.87;0.87;;;-1.50;99.90;;;;;;5114429;28;20504;-86
2022/12/09 01:31:43;;;;;;;0.53;0.53;;;-1.50;99.90;;;;;;5114408;28;20426;-86
2022/12/09 01:34:10;;;;;;;0.60;0.60;;;-1.60;99.90;;;;;;5114245;28;20465;-86
2022/12/09 01:36:36;;;;;;;0.30;0.30;;;-1.70;99.90;;;;;;5114089;28;20434;-86
2022/12/09 01:39:04;;;;;;;0.33;0.30;;;-1.70;99.90;;;;;;5114314;28;20787;-86
2022/12/09 01:41:31;;;;;;;1.40;0.60;;;-1.70;99.90;;;;;;5114114;28;20913;-86
2022/12/09 01:44:17;;;;;;;0.70;0.70;;;-1.70;99.90;;;;;;5114136;28;20418;-86
2022/12/09 01:46:46;;;;;;;0.30;0.30;;;-1.70;99.90;;;;;;5114509;28;20459;-86
2022/12/09 01:49:18;;;;;;;0.47;0.47;;;-1.70;99.90;;;;;;5114365;28;20459;-86
2022/12/09 01:51:51;;;;;;;0.30;0.30;;;-1.70;99.90;;;;;;5114329;28;20424;-86
2022/12/09 01:54:18;;;;;;;0.40;0.40;;;-1.70;99.90;;;;;;5114926;28;20996;-87
2022/12/09 01:56:45;;;;;;;0.40;0.40;;;-1.70;99.90;;;;;;5118191;28;20438;-87
2022/12/09 01:59:14;;;;;;;0.30;0.30;;;-1.70;99.90;;;;;;5118203;28;20931;-86
2022/12/09 02:01:43;;;;;;;0.87;0.87;;;-1.70;99.90;;;;;;5118403;28;20422;-87
2022/12/09 02:04:11;;;;;;;0.30;0.30;;;-1.70;99.90;;;;;;5118092;28;20449;-87
2022/12/09 02:06:38;;;;;;;0.30;0.30;;;-1.80;99.90;;;;;;5117728;28;20439;-87
2022/12/09 02:09:05;;;;;;;0.97;0.53;;;-1.80;99.90;;;;;;5118193;28;20448;-87
2022/12/09 02:11:49;;;;;;;0.97;0.97;;;-1.80;99.90;;;;;;5118240;28;20407;-86
2022/12/09 02:14:21;;;;;;;0.30;0.30;;;-1.80;99.90;;;;;;5117753;28;20437;-87
2022/12/09 02:16:58;;;;;;;0.67;0.67;;;-1.90;99.90;;;;;;5117731;28;20973;-87
2022/12/09 02:19:47;;;;;;;0.50;0.50;;;-1.90;99.90;;;;;;5118516;28;20414;-87
2022/12/09 02:22:18;;;;;;;0.50;0.50;;;-1.90;99.90;;;;;;5117700;28;20450;-87
2022/12/09 02:24:54;;;;;;;0.30;0.30;;;-1.90;99.90;;;;;;5121177;28;20390;-87
2022/12/09 02:27:28;;;;;;;0.40;0.40;;;-1.90;99.90;;;;;;5118110;28;20435;-88
2022/12/09 02:30:06;;;;;;;0.30;0.30;;;-2.00;99.90;;;;;;5117869;27;20414;-88
2022/12/09 02:33:13;;;;;;;0.30;0.30;;;-2.00;99.90;;;;;;5117787;28;20406;-87
2022/12/09 02:35:47;;;;;;;0.30;0.30;;;-2.00;99.90;;;;;;5092678;27;20441;-88
2022/12/09 02:38:17;;;;;;;0.30;0.30;;;-2.00;99.90;;;;;;5117609;28;20769;-88
2022/12/09 02:40:48;;;;;;;0.30;0.30;;;-1.90;99.90;;;;;;5117487;28;20390;-88
2022/12/09 02:43:19;;;;;;;0.30;0.30;;;-1.90;99.90;;;;;;5117816;28;20426;-88
2022/12/09 02:45:47;;;;;;;0.40;0.40;;;-1.90;99.90;;;;;;5117717;28;20463;-88
2022/12/09 02:48:16;;;;;;;0.33;0.33;;;-2.00;99.90;;;;;;5117623;28;20418;-88
2022/12/09 02:50:47;;;;;;;0.30;0.30;;;-2.00;99.90;;;;;;5117657;28;20450;-88
2022/12/09 02:53:15;;;;;;;0.30;0.30;;;-2.10;99.90;;;;;;5118171;28;20445;-88
2022/12/09 02:55:45;;;;;;;0.77;0.50;;;-2.00;99.90;;;;;;5117035;28;20472;-88
2022/12/09 02:58:12;;;;;;;0.30;0.30;;;-2.00;99.90;;;;;;5117278;28;20450;-88
2022/12/09 03:00:40;;;;;;;0.30;0.30;;;-2.00;99.90;;;;;;5117114;28;20421;-88
2022/12/09 03:03:13;;;;;;;0.57;0.50;;;-2.10;99.90;;;;;;5117293;28;20446;-88
2022/12/09 03:05:50;;;;;;;0.30;0.30;;;-2.10;99.90;;;;;;5117213;28;20438;-88
2022/12/09 03:08:26;;;;;;;0.30;0.30;;;-2.00;99.90;;;;;;5117371;27;20436;-88
2022/12/09 03:10:57;;;;;;;1.43;1.33;;;-2.00;99.90;;;;;;5116894;28;20439;-88
2022/12/09 03:13:38;;;;;;;0.30;0.30;;;-2.00;99.90;;;;;;5120095;28;20455;-89
2022/12/09 03:16:10;;;;;;;0.30;0.30;;;-2.00;99.90;;;;;;5132089;28;20521;-88
2022/12/09 03:18:41;;;;;;;0.50;0.50;;;-2.00;99.90;;;;;;5125279;28;20446;-87
2022/12/09 03:21:10;;;;;;;0.40;0.40;;;-2.00;99.90;;;;;;5132435;28;20493;-87
2022/12/09 03:23:37;;;;;;;0.30;0.30;;;-2.00;99.90;;;;;;5129133;28;20523;-88
2022/12/09 03:26:06;;;;;;;0.30;0.30;;;-2.00;99.90;;;;;;5119505;28;20805;-88
2022/12/09 03:28:37;;;;;;;0.30;0.30;;;-2.00;99.90;;;;;;5122657;28;20942;-88
2022/12/09 03:31:09;;;;;;;0.30;0.30;;;-2.00;99.90;;;;;;5117661;28;20436;-88
2022/12/09 03:33:36;;;;;;;1.00;1.00;;;-2.00;99.90;;;;;;5117210;28;20441;-88
2022/12/09 03:36:09;;;;;;;0.43;0.43;;;-2.00;99.90;;;;;;5117326;28;20460;-88
2022/12/09 03:38:41;;;;;;;0.30;0.30;;;-2.00;99.90;;;;;;5116398;28;20432;-88
2022/12/09 03:41:13;;;;;;;0.30;0.30;;;-2.00;99.90;;;;;;5116269;28;20409;-87
2022/12/09 03:43:47;;;;;;;0.40;0.40;;;-2.00;99.90;;;;;;5116583;28;20942;-88
2022/12/09 03:46:13;;;;;;;0.30;0.30;;;-2.10;99.90;;;;;;5116500;28;20877;-88
2022/12/09 03:48:40;;;;;;;0.30;0.30;;;-2.00;99.90;;;;;;5116166;28;20454;-88
2022/12/09 03:51:14;;;;;;;0.43;0.43;;;-2.00;99.90;;;;;;5116683;28;20436;-88
2022/12/09 03:53:48;;;;;;;0.30;0.30;;;-2.10;99.90;;;;;;5116327;27;20488;-88
2022/12/09 03:56:20;;;;;;;0.30;0.30;;;-2.10;99.90;;;;;;5116258;28;20473;-88
2022/12/09 03:58:49;;;;;;;0.30;0.20;;;-2.10;99.90;;;;;;5116150;28;20514;-88
2022/12/09 04:01:16;;;;;;;0.30;0.30;;;-2.10;99.90;;;;;;5116168;28;20429;-88
2022/12/09 04:03:44;;;;;;;0.30;0.30;;;-2.10;99.90;;;;;;5115777;28;20439;-88
2022/12/09 04:06:11;;;;;;;0.40;0.40;;;-2.10;99.90;;;;;;5115823;28;20438;-88
2022/12/09 04:08:38;;;;;;;0.30;0.30;;;-2.10;99.90;;;;;;5115503;28;20448;-88
2022/12/09 04:11:06;;;;;;;0.30;0.20;;;-2.10;99.90;;;;;;5115882;28;20789;-88
2022/12/09 04:13:33;;;;;;;0.30;0.30;;;-2.10;99.90;;;;;;5115571;28;20506;-88
2022/12/09 04:15:59;;;;;;;0.40;0.40;;;-2.10;99.90;;;;;;5115734;28;20497;-88
2022/12/09 04:18:26;;;;;;;0.30;0.20;;;-2.10;99.90;;;;;;5115108;28;20458;-88
2022/12/09 04:20:53;;;;;;;11.93;1.17;;;-2.10;99.90;;;;;;5115359;28;20566;-88
2022/12/09 04:23:20;;;;;;;0.47;0.47;;;-2.10;99.90;;;;;;5116460;28;20859;-88
2022/12/09 04:25:47;;;;;;;0.80;0.40;;;-2.10;99.90;;;;;;5115421;28;20475;-88
2022/12/09 04:28:15;;;;;;;0.30;0.30;;;-2.00;99.90;;;;;;5115583;28;20446;-88
2022/12/09 04:30:44;;;;;;;0.33;0.33;;;-2.00;99.90;;;;;;5115490;28;20458;-89
2022/12/09 04:33:11;;;;;;;3.80;1.60;;;-2.10;99.90;;;;;;5115461;28;20450;-88
2022/12/09 04:35:38;;;;;;;0.50;0.50;;;-2.10;99.90;;;;;;5116317;28;20447;-88
2022/12/09 04:38:05;;;;;;;0.30;0.30;;;-2.10;99.90;;;;;;5115154;28;20444;-88
2022/12/09 04:40:32;;;;;;;0.30;0.30;;;-2.10;99.90;;;;;;5115426;28;20450;-88
2022/12/09 04:42:59;;;;;;;0.30;0.30;;;-2.00;99.90;;;;;;5115125;28;20817;-89
2022/12/09 04:45:27;;;;;;;0.30;0.30;;;-2.00;99.90;;;;;;5115017;28;20593;-88
2022/12/09 04:47:54;;;;;;;0.30;0.30;;;-2.00;99.90;;;;;;5115084;28;20444;-89
2022/12/09 04:50:21;;;;;;;0.30;0.20;;;-2.00;99.90;;;;;;5115078;28;20443;-88
2022/12/09 04:52:47;;;;;;;0.30;0.30;;;-2.00;99.90;;;;;;5115030;28;20491;-89
2022/12/09 04:55:14;;;;;;;1.40;1.30;;;-2.00;99.90;;;;;;5114816;28;20487;-89
2022/12/09 04:57:41;;;;;;;0.30;0.30;;;-2.00;99.90;;;;;;5115047;28;20443;-88
2022/12/09 05:00:09;;;;;;;0.30;0.30;;;-2.00;99.90;;;;;;5115128;28;20421;-88
2022/12/09 05:02:37;;;;;;;0.30;0.30;;;-2.00;99.90;;;;;;5114864;28;20418;-88
2022/12/09 05:05:04;;;;;;;0.60;0.60;;;-2.00;99.90;;;;;;5114742;28;20427;-88
2022/12/09 05:07:31;;;;;;;0.50;0.50;;;-2.00;99.90;;;;;;5114864;28;20798;-88
2022/12/09 05:09:58;;;;;;;0.50;0.50;;;-2.00;99.90;;;;;;5114769;28;20440;-88
2022/12/09 05:12:25;;;;;;;0.30;0.30;;;-2.00;99.90;;;;;;5115028;28;20432;-88
2022/12/09 05:14:52;;;;;;;0.90;0.90;;;-2.00;99.90;;;;;;5114690;28;20456;-88
2022/12/09 05:17:19;;;;;;;0.30;0.30;;;-2.00;99.90;;;;;;5115049;28;20444;-88
2022/12/09 05:19:47;;;;;;;1.23;0.67;;;-1.90;99.90;;;;;;5114616;28;20447;-88
2022/12/09 05:22:16;;;;;;;0.30;0.30;;;-1.90;99.90;;;;;;5114393;28;20820;-88
2022/12/09 05:24:43;;;;;;;0.50;0.50;;;-1.80;99.90;;;;;;5114708;28;20436;-88
2022/12/09 05:27:10;;;;;;;0.50;0.40;;;-1.80;99.90;;;;;;5114619;28;20440;-88
2022/12/09 05:29:37;;;;;;;0.30;0.30;;;-1.70;99.90;;;;;;5116085;28;20797;-88
2022/12/09 05:32:04;;;;;;;0.30;0.30;;;-1.70;99.90;;;;;;5118475;28;20911;-88
2022/12/09 05:34:31;;;;;;;0.40;0.40;;;-1.80;99.90;;;;;;5118678;28;20485;-88
2022/12/09 05:36:59;;;;;;;0.40;0.40;;;-1.80;99.90;;;;;;5118699;28;20979;-88
2022/12/09 05:39:26;;;;;;;0.40;0.40;;;-1.90;99.90;;;;;;5118199;28;20513;-88
2022/12/09 05:41:53;;;;;;;0.87;0.63;;;-1.80;99.90;;;;;;5118548;28;20534;-89
2022/12/09 05:44:20;;;;;;;0.40;0.30;;;-1.80;99.90;;;;;;5118707;28;20448;-89
2022/12/09 05:46:47;;;;;;;1.17;1.07;;;-1.80;99.90;;;;;;5118516;28;20590;-89
2022/12/09 05:49:14;;;;;;;0.40;0.40;;;-1.70;99.90;;;;;;5118572;28;20422;-89
2022/12/09 05:51:41;;;;;;;0.30;0.30;;;-1.70;99.90;;;;;;5118596;28;20443;-89
2022/12/09 05:54:10;;;;;;;0.30;0.30;;;-1.80;99.90;;;;;;5119293;28;20501;-89
2022/12/09 05:56:36;;;;;;;0.30;0.30;;;-1.80;99.90;;;;;;5118686;28;20471;-89
2022/12/09 05:59:03;;;;;;;1.53;0.77;;;-1.90;99.90;;;;;;5118579;28;20443;-89
2022/12/09 06:01:30;;;;;;;0.30;0.30;;;-1.90;99.90;;;;;;5118197;28;20504;-89
2022/12/09 06:03:57;;;;;;;0.40;0.40;;;-1.90;99.90;;;;;;5118314;27;20474;-89
2022/12/09 06:06:26;;;;;;;0.30;0.30;;;-1.80;99.90;;;;;;5117860;28;20995;-89
2022/12/09 06:08:56;;;;;;;0.53;0.53;;;-1.80;99.90;;;;;;5118273;28;20442;-89
2022/12/09 06:11:25;;;;;;;0.60;0.50;;;-1.70;99.90;;;;;;5117812;28;20454;-88
2022/12/09 06:13:52;;;;;;;0.30;0.30;;;-1.70;99.90;;;;;;5117956;28;20440;-88
2022/12/09 06:16:20;;;;;;;0.30;0.30;;;-1.70;99.90;;;;;;5117840;28;20448;-88
2022/12/09 06:18:48;;;;;;;0.40;0.40;;;-1.70;99.90;;;;;;5117978;28;20444;-89
2022/12/09 06:21:16;;;;;;;0.30;0.30;;;-1.70;99.90;;;;;;5117736;28;20460;-89
2022/12/09 06:23:43;;;;;;;0.40;0.40;;;-1.70;99.90;;;;;;5118102;28;20418;-89
2022/12/09 06:26:17;;;;;;;0.33;0.33;;;-1.70;99.90;;;;;;5117962;28;20437;-89
2022/12/09 06:28:45;;;;;;;0.70;0.70;;;-1.60;99.90;;;;;;5117961;28;20434;-89
2022/12/09 06:31:12;;;;;;;0.40;0.40;;;-1.60;99.90;;;;;;5117779;28;20422;-89
2022/12/09 06:33:39;;;;;;;0.30;0.30;;;-1.60;99.90;;;;;;5117486;28;20418;-89
2022/12/09 06:36:07;;;;;;;5.23;1.47;;;-1.60;99.90;;;;;;5117765;28;20464;-88
2022/12/09 06:38:34;;;;;;;0.30;0.30;;;-1.60;99.90;;;;;;5117557;28;20448;-89
2022/12/09 06:41:05;;;;;;;0.30;0.30;;;-1.60;99.90;;;;;;5117540;28;20426;-88
2022/12/09 06:43:32;;;;;;;0.40;0.37;;;-1.50;99.90;;;;;;5118061;28;20428;-89
2022/12/09 06:46:01;;;;;;;0.40;0.40;;;-1.40;99.90;;;;;;5117220;28;20987;-88
2022/12/09 06:48:27;;;;;;;0.40;0.40;;;-1.40;99.90;;;;;;5117534;28;20446;-88
2022/12/09 06:50:54;;;;;;;0.60;0.40;;;-1.30;99.90;;;;;;5117271;28;20431;-88
2022/12/09 06:53:21;;;;;;;0.30;0.30;;;-1.30;99.90;;;;;;5117335;28;20524;-88
2022/12/09 06:55:48;;;;;;;0.30;0.30;;;-1.30;99.90;;;;;;5117197;28;20488;-89
2022/12/09 06:58:15;;;;;;;2.73;2.20;;;-1.20;99.90;;;;;;5117096;28;20500;-88
2022/12/09 07:00:42;;;;;;;0.30;0.30;;;-1.30;99.90;;;;;;5117197;28;20448;-89
2022/12/09 07:03:11;;;;;;;0.60;0.50;;;-1.30;99.90;;;;;;5117136;28;20423;-88
2022/12/09 07:05:38;;;;;;;0.30;0.30;;;-1.20;99.90;;;;;;5117001;28;20466;-88
2022/12/09 07:08:05;;;;;;;0.30;0.30;;;-1.20;99.90;;;;;;5117069;28;20450;-88
2022/12/09 07:10:32;;;;;;;1.27;1.17;;;-1.20;99.90;;;;;;5117104;28;20542;-88
2022/12/09 07:12:59;;;;;;;0.40;0.40;;;-1.20;99.90;;;;;;5117081;28;20444;-88
2022/12/09 07:15:26;;;;;;;0.30;0.30;;;-1.30;99.90;;;;;;5116570;28;20485;-88
2022/12/09 07:17:53;;;;;;;0.30;0.30;;;-1.30;99.90;;;;;;5116919;28;20456;-88
2022/12/09 07:20:21;;;;;;;0.70;0.70;;;-1.30;99.90;;;;;;5116849;28;20458;-87
2022/12/09 07:22:48;;;;;;;0.30;0.30;;;-1.30;99.90;;;;;;5116437;28;20935;-88
2022/12/09 07:25:15;;;;;;;0.40;0.40;;;-1.20;99.90;;;;;;5116861;28;20435;-88
2022/12/09 07:27:41;;;;;;;0.60;0.60;;;-1.20;99.90;;;;;;5116766;28;20422;-88
2022/12/09 07:30:09;;;;;;;0.40;0.33;;;-1.20;99.90;;;;;;5116575;28;20456;-87
2022/12/09 07:32:36;;;;;;;0.30;0.30;;;-1.10;99.90;;;;;;5116418;28;20447;-87
2022/12/09 07:35:02;;;;;;;0.30;0.30;;;-1.10;99.90;;;;;;5115802;27;20479;-87
2022/12/09 07:37:31;;;;;;;1.03;1.03;;;-1.10;99.90;;;;;;5116243;28;20455;-87
2022/12/09 07:39:58;;;;;;;0.30;0.30;;;-1.00;99.90;;;;;;5116288;28;20444;-87
2022/12/09 07:42:25;;;;;;;0.30;0.30;;;-1.00;99.90;;;;;;5115890;28;21041;-87
2022/12/09 07:44:51;;;;;;;0.30;0.30;;;-0.90;99.90;;;;;;5115802;28;21028;-87
2022/12/09 07:47:18;;;;;;;0.40;0.40;;;-0.90;99.90;;;;;;5115911;28;20421;-88
2022/12/09 07:49:45;;;;;;;0.40;0.40;;;-0.80;99.90;;;;;;5115966;28;20448;-87
2022/12/09 07:52:12;;;;;;;0.97;0.80;;;-0.80;99.90;;;;;;5115067;28;20922;-87
2022/12/09 07:54:40;;;;;;;0.57;0.50;;;-0.70;99.90;;;;;;5115769;28;20480;-87
2022/12/09 07:57:07;;;;;;;0.60;0.60;;;-0.70;99.90;;;;;;5115983;28;20467;-87
2022/12/09 07:59:34;;;;;;;0.30;0.30;;;-0.60;99.90;;;;;;5115620;28;20458;-87
2022/12/09 08:02:02;;;;;;;0.60;0.60;;;-0.50;99.90;;;;;;5115684;28;20448;-87
2022/12/09 08:04:29;;;;;;;1.53;1.07;;;-0.40;99.90;;;;;;5115723;28;20451;-87
2022/12/09 08:06:55;;;;;;;1.23;1.23;;;-0.30;99.90;;;;;;5115743;28;20474;-87
2022/12/09 08:09:22;;;;;;;0.40;0.40;;;-0.10;99.90;;;;;;5115394;28;20455;-86
2022/12/09 08:11:50;;;;;;;0.30;0.30;;;-0.10;99.90;;;;;;5115291;28;20444;-87
2022/12/09 08:14:17;;;;;;;0.30;0.30;;;0.00;99.90;;;;;;5115092;27;20456;-86
2022/12/09 08:16:44;;;;;;;0.50;0.50;;;0.10;99.90;;;;;;5115254;28;20533;-87
2022/12/09 08:19:11;;;;;;;0.30;0.30;;;0.20;99.90;;;;;;5114810;28;20450;-86
2022/12/09 08:21:38;;;;;;;1.80;0.97;;;0.30;99.90;;;;;;5114574;28;20479;-86
2022/12/09 08:24:06;;;;;;;0.33;0.33;;;0.30;99.90;;;;;;5114902;28;20500;-86
2022/12/09 08:26:33;;;;;;;0.60;0.60;;;0.40;99.90;;;;;;5114570;28;20463;-86
2022/12/09 08:29:01;;;;;;;0.30;0.30;;;0.50;99.90;;;;;;5114556;28;20487;-86
2022/12/09 08:31:28;;;;;;;0.40;0.40;;;0.60;99.90;;;;;;5114894;28;20444;-86
2022/12/09 08:33:56;;;;;;;0.70;0.60;;;0.70;99.90;;;;;;5114722;28;20444;-85
2022/12/09 08:36:24;;;;;;;0.50;0.50;;;0.80;99.90;;;;;;5114653;28;20892;-86
2022/12/09 08:38:52;;;;;;;0.30;0.20;;;0.80;99.90;;;;;;5114696;28;20450;-86
2022/12/09 08:41:20;;;;;;;1.23;0.50;;;0.80;99.90;;;;;;5114641;28;20455;-86
2022/12/09 08:43:47;;;;;;;0.40;0.40;;;0.90;99.90;;;;;;5114644;27;20451;-86
2022/12/09 08:46:15;;;;;;;0.30;0.30;;;1.00;99.90;;;;;;5114504;28;20467;-86
2022/12/09 08:48:42;;;;;;;0.67;0.67;;;1.00;99.90;;;;;;5114635;28;20970;-85
2022/12/09 08:51:11;;;;;;;0.50;0.50;;;1.00;99.90;;;;;;5114328;28;20455;-86
2022/12/09 08:53:38;;;;;;;0.40;0.40;;;1.10;99.90;;;;;;5115374;28;20439;-86
2022/12/09 08:56:10;;;;;;;1.03;0.93;;;1.00;99.90;;;;;;5134685;27;20489;-86
2022/12/09 08:58:37;;;;;;;0.70;0.70;;;1.00;99.90;;;;;;5134964;27;20438;-85
2022/12/09 09:01:04;;;;;;;1.60;0.77;;;0.90;99.90;;;;;;5134963;27;20442;-85
2022/12/09 09:03:32;;;;;;;2.10;2.00;;;1.00;99.90;;;;;;5134662;27;20449;-85
2022/12/09 09:06:03;;;;;;;0.30;0.30;;;1.10;99.90;;;;;;5134604;27;20833;-86
2022/12/09 09:08:30;;;;;;;0.60;0.60;;;1.00;99.90;;;;;;5134849;27;20425;-85
2022/12/09 09:10:58;;;;;;;0.30;0.30;;;1.00;99.90;;;;;;5134460;27;20455;-86
2022/12/09 09:13:25;;;;;;;0.30;0.30;;;1.00;99.90;;;;;;5134725;27;20538;-86
2022/12/09 09:15:52;;;;;;;0.93;0.73;;;1.00;99.90;;;;;;5134610;27;20482;-86
2022/12/09 09:18:18;;;;;;;0.30;0.30;;;1.10;99.90;;;;;;5134729;27;20906;-86
2022/12/09 09:20:47;;;;;;;0.93;0.87;;;1.10;99.90;;;;;;5134282;27;20481;-85
2022/12/09 09:23:15;;;;;;;0.47;0.47;;;1.10;99.90;;;;;;5134904;27;20447;-86
2022/12/09 09:25:42;;;;;;;0.40;0.40;;;1.20;99.90;;;;;;5134593;27;20463;-86
2022/12/09 09:28:09;;;;;;;0.50;0.50;;;1.20;99.90;;;;;;5134590;27;20427;-85
2022/12/09 09:30:36;;;;;;;0.47;0.47;;;1.20;99.90;;;;;;5134545;27;20428;-86
2022/12/09 09:33:03;;;;;;;0.30;0.20;;;1.20;99.90;;;;;;5134650;27;20423;-86
2022/12/09 09:35:30;;;;;;;0.40;0.40;;;1.20;99.90;;;;;;5134092;27;20574;-86
2022/12/09 09:37:58;;;;;;;1.40;0.60;;;1.30;99.90;;;;;;5134408;27;20803;-85
2022/12/09 09:40:27;;;;;;;1.83;0.97;;;1.30;99.90;;;;;;5134276;27;20461;-86
2022/12/09 09:42:57;;;;;;;0.37;0.33;;;1.30;99.90;;;;;;5134492;27;20526;-85
2022/12/09 09:45:24;;;;;;;0.50;0.50;;;1.30;99.90;;;;;;5134445;27;20467;-85
2022/12/09 09:47:55;;;;;;;1.80;0.83;;;1.30;99.90;;;;;;5134943;27;20427;-86
2022/12/09 09:50:35;;;;;;;1.33;0.70;;;1.30;99.90;;;;;;5134508;27;20437;-86
2022/12/09 09:53:15;;;;;;;1.43;0.50;;;1.30;99.90;;;;;;5134464;27;20504;-86
2022/12/09 09:55:48;;;;;;;0.40;0.40;;;1.30;99.90;;;;;;5134436;27;20488;-85
2022/12/09 09:58:19;;;;;;;2.67;0.83;;;1.40;99.90;;;;;;5134270;27;20803;-86
2022/12/09 10:00:56;;;;;;;0.43;0.43;;;1.50;99.90;;;;;;5134408;27;20434;-86
2022/12/09 10:03:33;;;;;;;0.97;0.87;;;1.50;99.90;;;;;;5134318;27;20544;-86
2022/12/09 10:06:09;;;;;;;0.30;0.30;;;1.60;99.90;;;;;;5133810;27;20988;-86
2022/12/09 10:08:46;;;;;;;0.60;0.60;;;1.60;99.90;;;;;;5134197;27;20452;-86
2022/12/09 10:11:17;;;;;;;1.00;0.83;;;1.70;99.90;;;;;;5134460;27;20464;-85
2022/12/09 10:13:50;;;;;;;0.40;0.40;;;1.80;99.90;;;;;;5134209;27;20427;-86
2022/12/09 10:16:21;;;;;;;1.13;0.53;;;1.80;99.90;;;;;;5136436;27;20486;-86
2022/12/09 10:19:01;;;;;;;0.40;0.40;;;1.80;99.90;;;;;;5138019;27;20451;-86
2022/12/09 10:21:29;;;;;;;0.40;0.40;;;1.80;99.90;;;;;;5137491;27;20478;-85
2022/12/09 10:24:13;;;;;;;1.43;1.00;;;1.80;99.90;;;;;;5137875;27;20511;-85
2022/12/09 10:26:40;;;;;;;3.13;0.93;;;1.80;99.90;;;;;;5138170;27;20828;-85
2022/12/09 10:29:15;;;;;;;1.57;0.67;;;1.90;99.90;;;;;;5137297;27;20450;-86
2022/12/09 10:31:41;;;;;;;0.50;0.50;;;1.90;99.90;;;;;;5137755;27;20901;-85
2022/12/09 10:34:09;;;;;;;0.30;0.30;;;2.00;99.90;;;;;;5137552;27;20451;-85
2022/12/09 10:36:38;;;;;;;0.97;0.63;;;2.00;99.90;;;;;;5137329;27;20475;-85
2022/12/09 10:39:10;;;;;;;1.60;1.50;;;2.10;99.90;;;;;;5137565;27;20453;-85
2022/12/09 10:44:28;;;;;;;1.43;1.43;;;2.10;99.90;;;;;;5137361;27;20826;-85
2022/12/09 10:47:00;;;;;;;1.30;1.00;;;2.10;99.90;;;;;;5136986;27;20474;-85
2022/12/09 10:49:27;;;;;;;1.27;1.27;;;2.10;99.90;;;;;;5137006;27;20425;-85
2022/12/09 10:51:54;;;;;;;0.67;0.67;;;2.10;99.90;;;;;;5137322;27;20438;-85
2022/12/09 10:54:32;;;;;;;0.53;0.53;;;2.00;99.90;;;;;;5137000;27;20451;-82
2022/12/09 10:57:21;;;;;;;1.67;0.30;;;2.00;99.90;;;;;;5136796;27;20531;-82
2022/12/09 10:59:58;;;;;;;1.93;1.73;;;2.00;99.90;;;;;;5136574;27;20481;-82
2022/12/09 11:02:25;;;;;;;0.30;0.30;;;2.10;99.90;;;;;;5138665;27;20430;-81
2022/12/09 11:04:52;;;;;;;0.60;0.60;;;2.10;99.90;;;;;;5136663;27;20458;-81
2022/12/09 11:07:21;;;;;;;0.70;0.70;;;2.20;99.90;;;;;;5136696;27;20818;-82
2022/12/09 11:09:50;;;;;;;0.50;0.50;;;2.20;99.90;;;;;;5136646;27;20456;-82
2022/12/09 11:12:30;;;;;;;0.50;0.50;;;2.20;99.90;;;;;;5136569;27;20447;-82
2022/12/09 11:14:59;;;;;;;0.80;0.70;;;2.20;99.90;;;;;;5136510;27;20438;-82
2022/12/09 11:17:28;;;;;;;0.93;0.93;;;2.20;99.90;;;;;;5136203;27;20844;-81
2022/12/09 11:20:10;;;;;;;0.63;0.50;;;2.20;99.90;;;;;;5136405;27;20449;-81
2022/12/09 11:22:39;;;;;;;0.97;0.50;;;2.20;99.90;;;;;;5136007;27;20493;-81
2022/12/09 11:25:20;;;;;;;3.10;0.67;;;2.20;99.90;;;;;;5136224;27;20606;-82
2022/12/09 11:27:50;;;;;;;1.03;1.03;;;2.20;99.90;;;;;;5134995;27;20474;-82
2022/12/09 11:30:19;;;;;;;0.80;0.70;;;2.30;99.90;;;;;;5136232;27;20427;-81
2022/12/09 11:33:05;;;;;;;1.27;1.27;;;2.30;99.90;;;;;;5136187;27;20458;-81
2022/12/09 11:35:51;;;;;;;0.83;0.83;;;2.40;99.90;;;;;;5136008;27;20532;-81
2022/12/09 11:38:24;;;;;;;1.13;0.70;;;2.50;99.90;;;;;;5135865;27;20943;-81
2022/12/09 11:41:02;;;;;;;1.80;1.00;;;2.60;99.90;;;;;;5135740;27;20914;-81
2022/12/09 11:43:33;;;;;;;4.13;1.83;;;2.70;99.90;;;;;;5135936;27;20427;-81
2022/12/09 11:45:59;;;;;;;0.43;0.40;;;2.70;99.90;;;;;;5135582;27;20459;-81
2022/12/09 11:48:29;;;;;;;1.33;0.97;;;2.80;99.90;;;;;;5135537;27;20458;-81
2022/12/09 11:50:56;;;;;;;1.40;1.30;;;2.90;99.90;;;;;;5135459;27;20949;-81
2022/12/09 11:53:27;;;;;;;0.80;0.80;;;2.70;99.90;;;;;;5135798;27;20476;-81
2022/12/09 11:56:02;;;;;;;0.50;0.50;;;2.70;99.90;;;;;;5135611;27;20483;-84
2022/12/09 11:58:35;;;;;;;11.57;1.63;;;2.60;99.90;;;;;;5135987;27;20422;-81
2022/12/09 12:01:05;;;;;;;1.00;0.53;;;2.60;99.90;;;;;;5135701;27;20471;-81
2022/12/09 12:03:37;;;;;;;0.60;0.60;;;2.60;99.90;;;;;;5135205;27;20451;-81
2022/12/09 12:06:08;;;;;;;1.63;1.27;;;2.50;99.90;;;;;;5135456;27;20463;-81
2022/12/09 12:08:43;;;;;;;0.57;0.50;;;2.40;99.90;;;;;;5135502;27;20454;-81
2022/12/09 12:11:12;;;;;;;1.13;0.70;;;2.40;99.90;;;;;;5135703;27;20439;-81
2022/12/09 12:13:43;;;;;;;1.53;0.70;;;2.40;99.90;;;;;;5135016;27;20801;-81
2022/12/09 12:16:13;;;;;;;4.23;1.60;;;2.40;99.90;;;;;;5134860;27;20475;-81
2022/12/09 12:18:47;;;;;;;0.40;0.40;;;2.40;99.90;;;;;;5134930;27;20960;-81
2022/12/09 12:21:32;;;;;;;0.50;0.40;;;2.40;99.90;;;;;;5135224;27;20483;-81
2022/12/09 12:24:25;;;;;;;3.23;0.77;;;2.40;99.90;;;;;;5135211;27;20431;-81
2022/12/09 12:27:06;;;;;;;1.37;0.40;;;2.40;99.90;;;;;;5106282;27;20825;-81
2022/12/09 12:29:44;;;;;;;0.70;0.70;;;2.30;99.90;;;;;;5135139;27;20797;-80
2022/12/09 12:32:36;;;;;;;1.73;0.40;;;2.30;99.90;;;;;;5135037;27;20435;-81
2022/12/09 12:35:20;;;;;;;0.90;0.50;;;2.30;99.90;;;;;;5134903;27;20418;-81
2022/12/09 12:37:59;;;;;;;0.30;0.30;;;2.20;99.90;;;;;;5134489;27;20462;-81
2022/12/09 12:40:36;;;;;;;0.80;0.30;;;2.20;99.90;;;;;;5134902;27;20437;-81
2022/12/09 12:46:18;;;;;;;0.60;0.40;;;2.20;99.90;;;;;;5134834;27;20442;-81
2022/12/09 12:49:11;;;;;;;0.87;0.87;;;2.20;99.90;;;;;;5134499;27;20438;-81
2022/12/09 12:51:45;;;;;;;1.03;0.87;;;2.20;99.90;;;;;;5134718;27;20446;-82
2022/12/09 12:54:22;;;;;;;1.20;1.10;;;2.20;99.90;;;;;;5134817;27;20429;-82
2022/12/09 12:57:02;;;;;;;0.63;0.63;;;2.20;99.90;;;;;;5134541;27;20490;-82
2022/12/09 12:59:37;;;;;;;1.90;1.00;;;2.20;99.90;;;;;;5134600;27;20426;-81
2022/12/09 13:02:22;;;;;;;0.37;0.37;;;2.20;99.90;;;;;;5134555;27;20515;-81
2022/12/09 13:04:56;;;;;;;0.93;0.70;;;2.20;99.90;;;;;;5134521;27;20493;-80
2022/12/09 13:07:30;;;;;;;0.40;0.30;;;2.10;99.90;;;;;;5134777;27;20427;-81
2022/12/09 13:10:02;;;;;;;1.10;1.10;;;2.20;99.90;;;;;;5135044;27;20428;-81